Terminal Aerodrome Forecast
Issued by NWS Charleston, WV

Current Version | Previous Version | Graphics & Text | Print | Product List | Glossary On
Versions: 1 2 3 4 5 6 7 8 9 10 11 12 13 14 15 16 17 18 19 20 21 22 23 24 25 26 27
709
FTUS41 KRLX 181139
TAFPKB
TAF
KPKB 181139Z 1812/1912 00000KT 1/2SM FG BKN002
     FM181400 03003KT P6SM FEW060
     FM190900 00000KT 1/4SM FG VV001=

USA.gov is the U.S. government's official web portal to all federal, state and local government web resources and services.